createdAt,value
2022-08-12T00:02:03.061Z,2.70
2022-08-12T00:04:50.797Z,2.13
2022-08-12T00:07:37.353Z,1.80
2022-08-12T00:10:25.005Z,1.73
2022-08-12T00:13:12.646Z,1.63
2022-08-12T00:15:58.612Z,1.65
2022-08-12T00:18:44.603Z,1.67
2022-08-12T00:21:32.203Z,1.70
2022-08-12T00:24:22.295Z,1.58
2022-08-12T00:27:08.984Z,1.88
2022-08-12T00:29:55.030Z,1.45
2022-08-12T00:32:40.871Z,1.35
2022-08-12T00:35:36.760Z,1.73
2022-08-12T00:38:23.307Z,1.60
2022-08-12T00:41:09.126Z,1.40
2022-08-12T00:43:39.011Z,1.40
2022-08-12T00:46:32.298Z,1.60
2022-08-12T00:49:01.577Z,1.42
2022-08-12T00:51:48.646Z,1.52
2022-08-12T00:56:43.179Z,1.60
2022-08-12T00:59:10.527Z,1.52
2022-08-12T01:02:00.963Z,1.90
2022-08-12T01:04:44.435Z,1.77
2022-08-12T01:07:33.489Z,1.25
2022-08-12T01:10:19.840Z,2.05
2022-08-12T01:13:07.351Z,1.38
2022-08-12T01:15:52.547Z,1.20
2022-08-12T01:18:24.318Z,1.67
2022-08-12T01:20:54.681Z,1.88
2022-08-12T01:23:42.010Z,1.60
2022-08-12T01:26:10.716Z,1.60
2022-08-12T01:28:39.435Z,1.73
2022-08-12T01:33:40.928Z,1.40
2022-08-12T01:36:09.971Z,1.67
2022-08-12T01:38:38.067Z,1.80
2022-08-12T01:41:05.839Z,1.50
2022-08-12T01:43:34.979Z,1.80
2022-08-12T01:46:09.930Z,1.60
2022-08-12T01:48:39.974Z,1.50
2022-08-12T01:52:15.507Z,1.88
2022-08-12T01:54:05.765Z,2.03
2022-08-12T01:56:43.392Z,1.60
2022-08-12T01:59:29.960Z,1.48
2022-08-12T02:01:58.143Z,1.92
2022-08-12T02:04:43.908Z,1.80
2022-08-12T02:07:35.477Z,1.95
2022-08-12T02:10:50.111Z,1.73
2022-08-12T02:13:48.446Z,1.52
2022-08-12T02:16:14.678Z,1.65
2022-08-12T02:18:52.062Z,1.50
2022-08-12T02:21:24.726Z,1.67
2022-08-12T02:23:52.263Z,1.77
2022-08-12T02:26:20.903Z,1.85
2022-08-12T02:28:48.409Z,1.90
2022-08-12T02:31:17.167Z,1.95
2022-08-12T02:33:46.699Z,1.70
2022-08-12T02:36:17.952Z,2.00
2022-08-12T02:38:46.608Z,1.90
2022-08-12T02:41:17.009Z,2.05
2022-08-12T02:43:50.915Z,2.20
2022-08-12T02:46:29.280Z,1.92
2022-08-12T02:49:00.875Z,1.88
2022-08-12T02:51:32.071Z,1.90
2022-08-12T02:54:04.571Z,2.38
2022-08-12T02:56:33.868Z,1.80
2022-08-12T02:59:01.147Z,1.90
2022-08-12T03:01:35.676Z,2.00
2022-08-12T03:04:24.600Z,1.85
2022-08-12T03:07:01.285Z,2.03
2022-08-12T03:09:32.741Z,1.95
2022-08-12T03:12:10.402Z,1.77
2022-08-12T03:14:45.388Z,1.98
2022-08-12T03:17:16.558Z,1.98
2022-08-12T03:20:09.510Z,2.03
2022-08-12T03:22:34.567Z,1.70
2022-08-12T03:25:04.367Z,2.15
2022-08-12T03:27:34.835Z,1.73
2022-08-12T03:30:01.933Z,1.75
2022-08-12T03:32:45.774Z,2.22
2022-08-12T03:35:36.917Z,2.20
2022-08-12T03:38:08.056Z,1.60
2022-08-12T03:41:01.829Z,2.17
2022-08-12T03:43:50.914Z,1.90
2022-08-12T03:46:40.110Z,1.80
2022-08-12T03:49:26.035Z,1.80
2022-08-12T03:52:12.160Z,1.98
2022-08-12T03:54:58.207Z,2.13
2022-08-12T03:57:44.097Z,1.85
2022-08-12T04:00:25.438Z,1.90
2022-08-12T04:03:01.437Z,1.83
2022-08-12T04:05:50.754Z,1.92
2022-08-12T04:08:17.960Z,2.30
2022-08-12T04:11:03.978Z,1.95
2022-08-12T04:13:31.109Z,2.10
2022-08-12T04:16:00.348Z,1.80
2022-08-12T04:18:27.553Z,2.03
2022-08-12T04:20:55.287Z,1.90
2022-08-12T04:23:23.861Z,2.00
2022-08-12T04:25:50.994Z,2.28
2022-08-12T04:28:25.533Z,2.00
2022-08-12T04:30:52.739Z,2.28
2022-08-12T04:33:20.153Z,2.30
2022-08-12T04:35:47.395Z,2.10
2022-08-12T04:38:14.677Z,1.92
2022-08-12T04:40:42.248Z,2.03
2022-08-12T04:44:00.684Z,2.00
2022-08-12T04:45:57.851Z,2.05
2022-08-12T04:48:25.016Z,1.83
2022-08-12T04:50:52.134Z,2.33
2022-08-12T04:53:19.532Z,2.05
2022-08-12T04:55:48.195Z,5.28
2022-08-12T04:58:15.310Z,2.10
2022-08-12T05:00:57.349Z,1.88
2022-08-12T05:03:26.478Z,2.20
2022-08-12T05:05:56.618Z,1.85
2022-08-12T05:08:24.243Z,2.03
2022-08-12T05:10:51.510Z,2.45
2022-08-12T05:13:23.146Z,1.85
2022-08-12T05:16:03.729Z,2.40
2022-08-12T05:18:38.365Z,1.85
2022-08-12T05:21:10.569Z,2.10
2022-08-12T05:23:39.059Z,1.80
2022-08-12T05:26:06.247Z,2.13
2022-08-12T05:28:33.917Z,2.08
2022-08-12T05:31:04.470Z,2.22
2022-08-12T05:33:40.076Z,2.20
2022-08-12T05:36:14.036Z,2.10
2022-08-12T05:38:57.509Z,1.98
2022-08-12T05:41:25.610Z,2.25
2022-08-12T05:43:56.404Z,2.15
2022-08-12T05:46:24.193Z,1.98
2022-08-12T05:48:54.338Z,1.92
2022-08-12T05:51:24.727Z,1.95
2022-08-12T05:53:58.738Z,2.20
2022-08-12T05:56:28.904Z,2.08
2022-08-12T05:58:56.585Z,2.03
2022-08-12T06:02:12.737Z,1.90
2022-08-12T06:04:12.153Z,2.00
2022-08-12T06:06:41.668Z,2.35
2022-08-12T06:09:13.195Z,2.50
2022-08-12T06:12:04.571Z,1.90
2022-08-12T06:14:36.338Z,2.85
2022-08-12T06:17:04.539Z,2.13
2022-08-12T06:20:27.548Z,2.55
2022-08-12T06:27:16.533Z,2.60
2022-08-12T06:30:07.174Z,3.20
2022-08-12T06:32:31.727Z,2.50
2022-08-12T06:35:25.657Z,2.75
2022-08-12T06:37:51.628Z,2.10
2022-08-12T06:40:42.796Z,3.13
2022-08-12T06:43:09.965Z,2.33
2022-08-12T06:45:46.786Z,2.42
2022-08-12T06:48:14.331Z,3.50
2022-08-12T06:50:42.457Z,2.75
2022-08-12T06:53:11.278Z,2.45
2022-08-12T06:55:39.254Z,2.17
2022-08-12T06:58:25.120Z,2.20
2022-08-12T07:00:52.474Z,2.65
2022-08-12T07:03:39.305Z,3.10
2022-08-12T07:06:11.575Z,3.45
2022-08-12T07:08:42.105Z,3.15
2022-08-12T07:11:10.105Z,2.60
2022-08-12T07:14:11.900Z,3.45
2022-08-12T07:16:28.340Z,2.80
2022-08-12T07:18:58.185Z,2.63
2022-08-12T07:21:59.697Z,2.40
2022-08-12T07:24:12.732Z,3.08
2022-08-12T07:26:43.675Z,2.97
2022-08-12T07:29:13.157Z,2.72
2022-08-12T07:34:10.260Z,3.20
2022-08-12T07:36:37.571Z,2.72
2022-08-12T07:39:05.184Z,2.80
2022-08-12T07:41:34.214Z,3.00
2022-08-12T07:44:04.790Z,2.78
2022-08-12T07:46:36.855Z,3.20
2022-08-12T07:49:11.329Z,3.25
2022-08-12T07:51:38.682Z,3.40
2022-08-12T07:54:09.315Z,2.63
2022-08-12T07:56:40.637Z,3.30
2022-08-12T07:59:08.878Z,2.88
2022-08-12T08:01:37.922Z,3.47
2022-08-12T08:04:24.563Z,3.15
2022-08-12T08:06:51.975Z,3.60
2022-08-12T08:09:21.163Z,3.28
2022-08-12T08:12:07.338Z,3.72
2022-08-12T08:14:34.551Z,3.15
2022-08-12T08:17:06.491Z,3.40
2022-08-12T08:20:02.903Z,3.58
2022-08-12T08:22:24.999Z,3.85
2022-08-12T08:27:55.358Z,3.00
2022-08-12T08:30:23.869Z,3.00
2022-08-12T08:32:51.021Z,3.10
2022-08-12T08:35:18.357Z,3.63
2022-08-12T08:37:48.294Z,2.22
2022-08-12T08:40:34.531Z,3.35
2022-08-12T08:43:02.195Z,3.58
2022-08-12T08:45:29.465Z,2.92
2022-08-12T08:48:00.223Z,3.10
2022-08-12T08:50:27.638Z,2.35
2022-08-12T08:52:54.972Z,2.95
2022-08-12T08:55:27.530Z,3.22
2022-08-12T08:58:04.682Z,3.17
2022-08-12T09:00:31.807Z,3.10
2022-08-12T09:02:59.918Z,2.83
2022-08-12T09:05:43.240Z,2.53
2022-08-12T09:08:22.490Z,2.72
2022-08-12T09:11:00.008Z,3.10
2022-08-12T09:14:12.293Z,2.65
2022-08-12T09:16:23.229Z,3.00
2022-08-12T09:21:19.860Z,2.50
2022-08-12T09:23:59.706Z,2.55
2022-08-12T09:26:29.374Z,2.55
2022-08-12T09:28:57.633Z,2.65
2022-08-12T09:32:03.446Z,3.00
2022-08-12T09:34:28.566Z,2.42
2022-08-12T09:37:02.444Z,2.78
2022-08-12T09:40:01.371Z,2.83
2022-08-12T09:43:10.993Z,2.90
2022-08-12T09:46:20.063Z,2.63
2022-08-12T09:48:34.959Z,2.85
2022-08-12T09:51:03.129Z,2.30
2022-08-12T09:53:38.266Z,2.50
2022-08-12T09:56:59.519Z,2.95
2022-08-12T09:58:59.734Z,2.53
2022-08-12T10:01:35.337Z,2.60
2022-08-12T10:04:19.035Z,2.63
2022-08-12T10:06:54.181Z,2.35
2022-08-12T10:09:28.511Z,2.47
2022-08-12T10:12:41.809Z,2.35
2022-08-12T10:15:15.323Z,2.42
2022-08-12T10:18:07.447Z,2.30
2022-08-12T10:20:34.875Z,3.00
2022-08-12T10:23:02.038Z,2.20
2022-08-12T10:26:35.547Z,2.10
2022-08-12T10:29:02.646Z,2.10
2022-08-12T10:32:20.182Z,2.28
2022-08-12T10:34:26.116Z,2.35
2022-08-12T10:36:58.597Z,2.38
2022-08-12T10:40:06.858Z,2.38
2022-08-12T10:42:39.021Z,2.10
2022-08-12T10:45:14.270Z,2.05
2022-08-12T10:48:19.638Z,2.00
2022-08-12T10:51:00.804Z,2.40
2022-08-12T10:53:44.054Z,2.22
2022-08-12T10:56:11.669Z,2.30
2022-08-12T10:58:39.211Z,2.13
2022-08-12T11:01:49.574Z,2.20
2022-08-12T11:04:22.637Z,2.25
2022-08-12T11:07:07.901Z,2.40
2022-08-12T11:09:51.396Z,2.47
2022-08-12T11:12:56.222Z,2.35
2022-08-12T11:15:19.377Z,2.33
2022-08-12T11:17:54.006Z,2.53
2022-08-12T11:20:24.176Z,2.45
2022-08-12T11:23:04.001Z,2.65
2022-08-12T11:25:57.760Z,2.47
2022-08-12T11:28:35.088Z,2.28
2022-08-12T11:31:05.740Z,2.28
2022-08-12T11:34:05.426Z,2.45
2022-08-12T11:36:21.782Z,2.30
2022-08-12T11:38:50.783Z,2.20
2022-08-12T11:41:28.168Z,2.30
2022-08-12T11:43:59.923Z,2.92
2022-08-12T11:46:47.038Z,2.40
2022-08-12T11:49:31.602Z,2.70
2022-08-12T11:52:00.371Z,2.47
2022-08-12T11:54:29.572Z,2.25
2022-08-12T11:56:59.577Z,2.30
2022-08-12T12:02:20.223Z,2.42
2022-08-12T12:04:52.704Z,2.30
2022-08-12T12:08:36.007Z,2.38
2022-08-12T12:10:12.500Z,2.10
2022-08-12T12:12:41.430Z,2.10
2022-08-12T12:15:24.705Z,2.35
2022-08-12T12:17:55.635Z,2.30
2022-08-12T12:20:25.912Z,1.98
2022-08-12T12:22:54.903Z,2.20
2022-08-12T12:25:22.082Z,2.10
2022-08-12T12:28:09.190Z,1.98
2022-08-12T12:30:56.345Z,2.58
2022-08-12T12:33:23.771Z,2.30
2022-08-12T12:36:07.197Z,1.88
2022-08-12T12:38:38.023Z,2.20
2022-08-12T12:41:16.442Z,2.50
2022-08-12T12:43:56.560Z,2.50
2022-08-12T12:46:31.434Z,2.42
2022-08-12T12:48:58.787Z,2.33
2022-08-12T12:51:55.166Z,2.50
2022-08-12T12:54:13.410Z,2.40
2022-08-12T12:56:50.050Z,2.45
2022-08-12T12:59:55.993Z,2.33
2022-08-12T13:02:08.541Z,2.05
2022-08-12T13:04:37.418Z,2.22
2022-08-12T13:07:05.962Z,2.33
2022-08-12T13:09:36.374Z,2.45
2022-08-12T13:12:03.960Z,2.38
2022-08-12T13:14:33.227Z,2.33
2022-08-12T13:17:03.282Z,2.10
2022-08-12T13:19:37.478Z,2.55
2022-08-12T13:22:32.511Z,2.20
2022-08-12T13:25:01.707Z,2.33
2022-08-12T13:27:36.316Z,2.30
2022-08-12T13:30:10.802Z,2.28
2022-08-12T13:32:40.068Z,2.42
2022-08-12T13:37:55.806Z,2.35
2022-08-12T13:40:27.022Z,2.70
2022-08-12T13:42:58.081Z,2.35
2022-08-12T13:45:29.346Z,2.20
2022-08-12T13:47:56.867Z,2.38
2022-08-12T13:50:26.768Z,2.60
2022-08-12T13:52:54.520Z,2.65
2022-08-12T13:55:22.911Z,2.55
2022-08-12T13:58:00.073Z,2.35
2022-08-12T14:00:34.006Z,2.30
2022-08-12T14:03:06.160Z,2.40
2022-08-12T14:05:37.977Z,2.13
2022-08-12T14:08:07.397Z,2.60
2022-08-12T14:10:36.884Z,2.50
2022-08-12T14:13:10.290Z,2.75
2022-08-12T14:15:39.098Z,2.83
2022-08-12T14:18:07.929Z,2.40
2022-08-12T14:20:35.070Z,2.70
2022-08-12T14:24:01.179Z,2.42
2022-08-12T14:25:50.256Z,2.35
2022-08-12T14:28:19.319Z,2.90
2022-08-12T14:31:00.186Z,2.20
2022-08-12T14:33:29.502Z,2.63
2022-08-12T14:36:12.893Z,2.08
2022-08-12T14:38:41.742Z,2.63
2022-08-12T14:41:10.191Z,2.30
2022-08-12T14:43:44.265Z,2.50
2022-08-12T14:46:27.209Z,2.42
2022-08-12T14:48:55.829Z,2.50
2022-08-12T14:52:42.743Z,2.58
2022-08-12T14:57:20.440Z,2.30
2022-08-12T15:00:05.664Z,2.85
2022-08-12T15:02:32.864Z,2.55
2022-08-12T15:05:00.760Z,2.55
2022-08-12T15:07:34.469Z,2.28
2022-08-12T15:10:31.237Z,2.78
2022-08-12T15:12:59.211Z,2.60
2022-08-12T15:15:26.444Z,2.35
2022-08-12T15:18:02.093Z,2.35
2022-08-12T15:20:37.944Z,2.45
2022-08-12T15:23:17.353Z,2.40
2022-08-12T15:25:47.831Z,2.40
2022-08-12T15:28:21.351Z,2.85
2022-08-12T15:30:52.204Z,2.38
2022-08-12T15:33:21.018Z,2.47
2022-08-12T15:35:53.228Z,2.70
2022-08-12T15:38:21.873Z,2.83
2022-08-12T15:40:51.255Z,2.72
2022-08-12T15:46:15.662Z,2.70
2022-08-12T15:48:47.010Z,2.22
2022-08-12T15:51:27.953Z,2.70
2022-08-12T15:54:32.778Z,2.33
2022-08-12T15:57:10.416Z,2.80
2022-08-12T16:00:00.859Z,2.47
2022-08-12T16:02:27.121Z,2.60
2022-08-12T16:04:56.824Z,2.55
2022-08-12T16:07:25.894Z,2.50
2022-08-12T16:10:05.809Z,2.50
2022-08-12T16:12:34.235Z,2.42
2022-08-12T16:15:01.807Z,2.50
2022-08-12T16:18:14.642Z,2.60
2022-08-12T16:20:21.895Z,2.55
2022-08-12T16:22:59.805Z,3.38
2022-08-12T16:26:03.296Z,2.97
2022-08-12T16:28:20.842Z,4.07
2022-08-12T16:30:55.447Z,2.83
2022-08-12T16:33:22.776Z,2.78
2022-08-12T16:35:50.316Z,2.92
2022-08-12T16:38:28.579Z,2.80
2022-08-12T16:40:56.928Z,2.25
2022-08-12T16:43:28.238Z,2.45
2022-08-12T16:46:07.989Z,2.42
2022-08-12T16:48:46.882Z,2.40
2022-08-12T16:51:13.970Z,2.17
2022-08-12T16:53:43.660Z,2.20
2022-08-12T16:56:12.611Z,2.40
2022-08-12T16:58:40.708Z,2.35
2022-08-12T17:01:12.024Z,2.33
2022-08-12T17:03:52.418Z,2.03
2022-08-12T17:06:27.374Z,3.30
2022-08-12T17:09:02.652Z,2.50
2022-08-12T17:11:30.984Z,2.35
2022-08-12T17:13:59.465Z,2.35
2022-08-12T17:16:29.834Z,2.15
2022-08-12T17:18:59.698Z,2.30
2022-08-12T17:21:41.876Z,2.22
2022-08-12T17:24:21.480Z,2.17
2022-08-12T17:26:50.567Z,2.40
2022-08-12T17:29:32.288Z,2.15
2022-08-12T17:32:10.274Z,2.42
2022-08-12T17:34:55.885Z,2.30
2022-08-12T17:37:23.073Z,2.38
2022-08-12T17:40:15.210Z,2.50
2022-08-12T17:42:47.835Z,2.47
2022-08-12T17:45:19.459Z,2.25
2022-08-12T17:48:01.951Z,2.03
2022-08-12T17:50:34.017Z,2.55
2022-08-12T17:53:03.054Z,2.10
2022-08-12T17:55:41.220Z,1.83
2022-08-12T17:58:18.375Z,2.20
2022-08-12T18:00:50.503Z,2.25
2022-08-12T18:04:04.842Z,2.05
2022-08-12T18:06:08.645Z,2.10
2022-08-12T18:08:54.491Z,1.80
2022-08-12T18:12:06.625Z,1.98
2022-08-12T18:14:29.316Z,1.85
2022-08-12T18:17:00.472Z,1.90
2022-08-12T18:19:34.200Z,2.10
2022-08-12T18:22:17.689Z,2.03
2022-08-12T18:25:00.784Z,2.08
2022-08-12T18:27:43.735Z,2.17
2022-08-12T18:30:21.079Z,2.03
2022-08-12T18:33:03.483Z,2.28
2022-08-12T18:35:46.620Z,2.33
2022-08-12T18:38:20.223Z,2.13
2022-08-12T18:41:09.515Z,2.22
2022-08-12T18:43:57.514Z,2.25
2022-08-12T18:46:34.912Z,2.35
2022-08-12T18:49:17.784Z,1.92
2022-08-12T18:51:51.750Z,2.05
2022-08-12T18:54:21.055Z,2.22
2022-08-12T18:56:50.165Z,1.90
2022-08-12T18:59:59.908Z,1.90
2022-08-12T19:02:21.562Z,2.10
2022-08-12T19:04:52.880Z,2.15
2022-08-12T19:07:24.925Z,2.08
2022-08-12T19:10:00.046Z,1.63
2022-08-12T19:12:56.844Z,1.92
2022-08-12T19:15:25.897Z,2.00
2022-08-12T19:17:56.345Z,1.70
2022-08-12T19:20:34.136Z,1.70
2022-08-12T19:23:07.474Z,2.13
2022-08-12T19:26:01.518Z,1.88
2022-08-12T19:28:35.741Z,1.70
2022-08-12T19:31:57.406Z,2.20
2022-08-12T19:37:17.326Z,2.15
2022-08-12T19:40:07.805Z,2.10
2022-08-12T19:42:32.676Z,2.00
2022-08-12T19:45:04.732Z,1.65
2022-08-12T19:47:38.980Z,1.88
2022-08-12T19:50:06.894Z,1.83
2022-08-12T19:52:40.758Z,2.00
2022-08-12T19:55:11.447Z,1.88
2022-08-12T19:57:42.593Z,2.13
2022-08-12T20:00:26.631Z,1.85
2022-08-12T20:03:03.218Z,1.92
2022-08-12T20:06:04.989Z,1.80
2022-08-12T20:08:20.867Z,2.38
2022-08-12T20:12:09.160Z,2.17
2022-08-12T20:13:49.401Z,1.92
2022-08-12T20:16:52.662Z,2.10
2022-08-12T20:19:23.457Z,1.80
2022-08-12T20:21:51.343Z,1.75
2022-08-12T20:24:22.074Z,2.10
2022-08-12T20:26:49.198Z,1.75
2022-08-12T20:29:16.706Z,1.75
2022-08-12T20:31:44.922Z,2.15
2022-08-12T20:34:12.633Z,2.58
2022-08-12T20:36:44.792Z,2.25
2022-08-12T20:39:37.489Z,3.08
2022-08-12T20:42:04.074Z,1.95
2022-08-12T20:44:37.787Z,1.90
2022-08-12T20:47:18.220Z,2.05
2022-08-12T20:49:55.749Z,2.08
2022-08-12T20:52:30.140Z,2.05
2022-08-12T20:54:58.431Z,1.80
2022-08-12T20:57:37.895Z,2.13
2022-08-12T21:00:15.556Z,1.88
2022-08-12T21:02:50.112Z,1.83
2022-08-12T21:05:41.215Z,2.50
2022-08-12T21:08:27.260Z,2.00
2022-08-12T21:10:59.126Z,1.70
2022-08-12T21:13:26.853Z,1.77
2022-08-12T21:15:58.936Z,1.90
2022-08-12T21:18:29.034Z,1.92
2022-08-12T21:20:59.029Z,1.90
2022-08-12T21:23:31.058Z,1.80
2022-08-12T21:26:11.432Z,1.95
2022-08-12T21:28:56.702Z,2.00
2022-08-12T21:32:39.595Z,1.42
2022-08-12T21:34:17.733Z,1.88
2022-08-12T21:36:48.417Z,2.10
2022-08-12T21:39:22.029Z,1.80
2022-08-12T21:41:52.962Z,2.10
2022-08-12T21:44:23.965Z,2.00
2022-08-12T21:47:20.351Z,1.95
2022-08-12T21:49:55.630Z,1.92
2022-08-12T21:52:34.560Z,1.98
2022-08-12T21:55:02.668Z,1.73
2022-08-12T21:57:30.390Z,2.00
2022-08-12T22:00:04.463Z,1.90
2022-08-12T22:03:03.039Z,2.20
2022-08-12T22:06:05.772Z,2.08
2022-08-12T22:08:33.339Z,2.45
2022-08-12T22:11:01.786Z,2.50
2022-08-12T22:14:04.182Z,2.65
2022-08-12T22:16:17.134Z,2.10
2022-08-12T22:18:50.615Z,2.25
2022-08-12T22:21:22.015Z,2.08
2022-08-12T22:24:04.275Z,2.22
2022-08-12T22:26:37.433Z,2.00
2022-08-12T22:29:24.049Z,1.90
2022-08-12T22:31:54.679Z,1.65
2022-08-12T22:34:22.110Z,2.00
2022-08-12T22:36:57.405Z,2.00
2022-08-12T22:39:26.523Z,1.83
2022-08-12T22:42:12.591Z,1.65
2022-08-12T22:44:58.657Z,2.05
2022-08-12T22:47:54.173Z,1.70
2022-08-12T22:50:27.760Z,2.03
2022-08-12T22:53:19.550Z,2.08
2022-08-12T22:56:00.794Z,1.98
2022-08-12T22:58:34.016Z,2.20
2022-08-12T23:01:02.703Z,2.03
2022-08-12T23:03:48.456Z,2.00
2022-08-12T23:08:46.779Z,1.98
2022-08-12T23:11:17.910Z,2.00
2022-08-12T23:13:54.662Z,1.98
2022-08-12T23:16:29.337Z,1.83
2022-08-12T23:19:09.284Z,1.95
2022-08-12T23:22:05.825Z,2.08
2022-08-12T23:24:38.593Z,1.67
2022-08-12T23:27:24.891Z,1.88
2022-08-12T23:30:18.486Z,2.45
2022-08-12T23:32:54.683Z,1.80
2022-08-12T23:35:45.843Z,2.20
2022-08-12T23:38:30.416Z,2.80
2022-08-12T23:41:01.194Z,3.50
2022-08-12T23:43:39.600Z,2.85
2022-08-12T23:46:08.964Z,2.83
2022-08-12T23:48:37.355Z,2.47
2022-08-12T23:51:22.055Z,2.35
2022-08-12T23:53:52.450Z,2.28
2022-08-12T23:56:22.614Z,1.98
2022-08-12T23:58:52.763Z,1.98
